Аэропорт: Бесовец. Петрозаводск

ICAO: ULPB

METAR:
2021-10-23 01:00:00
ULPB 230100Z AUTO 36005MPS 8000 03/02 Q0985 RMK QBB140 QFE735/0980
METAR:
Информация по данной станции не доступна